Time;durP1;ratioP1;P1;durP2;ratioP2;P2;SDS_P1;SDS_P2;PMS_P1;PMS_P2;Temp;Humidity;BMP_temperature;BMP_pressure;BME280_temperature;BME280_humidity;BME280_pressure;Samples;Min_cycle;Max_cycle;Signal;HPM_P1;HPM_P2
2021/03/10 00:00:54;;;;;;;97.40;30.37;;;-4.90;99.90;;;;;;4440636;28;659773;-49
2021/03/10 00:03:40;;;;;;;89.77;25.30;;;-4.90;99.90;;;;;;4459954;28;660039;-48
2021/03/10 00:06:28;;;;;;;81.30;25.60;;;-4.90;99.90;;;;;;4446565;28;658558;-50
2021/03/10 00:09:15;;;;;;;68.93;21.90;;;-5.00;99.90;;;;;;4461423;28;658906;-47
2021/03/10 00:12:03;;;;;;;83.10;25.50;;;-5.00;99.90;;;;;;4448492;28;659251;-53
2021/03/10 00:14:50;;;;;;;92.53;27.73;;;-5.00;99.90;;;;;;4471277;28;659756;-47
2021/03/10 00:17:37;;;;;;;78.70;24.90;;;-5.10;99.90;;;;;;4461416;28;659467;-53
2021/03/10 00:20:24;;;;;;;79.00;24.47;;;-5.10;99.90;;;;;;4466319;28;659388;-50
2021/03/10 00:23:12;;;;;;;74.13;23.63;;;-5.20;99.90;;;;;;4459264;28;659925;-52
2021/03/10 00:25:59;;;;;;;72.57;22.43;;;-5.20;99.90;;;;;;4435394;28;660390;-53
2021/03/10 00:28:46;;;;;;;76.57;21.93;;;-5.30;99.90;;;;;;4459363;28;659490;-52
2021/03/10 00:31:33;;;;;;;63.03;21.70;;;-5.30;99.90;;;;;;4446947;28;659408;-49
2021/03/10 00:34:20;;;;;;;81.00;25.70;;;-5.30;99.90;;;;;;4459868;28;659529;-53
2021/03/10 00:37:07;;;;;;;72.87;22.20;;;-5.40;99.90;;;;;;4462930;28;659172;-54
2021/03/10 00:39:55;;;;;;;61.00;20.80;;;-5.40;99.90;;;;;;4469206;28;658434;-53
2021/03/10 00:42:42;;;;;;;66.53;20.35;;;-5.40;99.90;;;;;;4443205;28;659623;-53
2021/03/10 00:45:29;;;;;;;58.60;18.73;;;-5.50;99.90;;;;;;4469618;28;657967;-51
2021/03/10 00:48:16;;;;;;;70.53;22.17;;;-5.50;99.90;;;;;;4466025;28;659640;-50
2021/03/10 00:51:03;;;;;;;72.43;20.90;;;-5.50;99.90;;;;;;4440469;28;659618;-48
2021/03/10 00:53:50;;;;;;;60.37;18.93;;;-5.60;99.90;;;;;;4465479;28;660259;-49
2021/03/10 00:56:38;;;;;;;57.17;18.85;;;-5.50;99.90;;;;;;4443014;28;659182;-52
2021/03/10 00:59:25;;;;;;;61.33;19.20;;;-5.60;99.90;;;;;;4468878;28;658578;-50
2021/03/10 01:02:12;;;;;;;62.67;20.07;;;-5.70;99.90;;;;;;4441855;28;658799;-54
2021/03/10 01:04:59;;;;;;;65.60;18.70;;;-5.70;99.90;;;;;;4451944;28;659771;-52
2021/03/10 01:07:46;;;;;;;60.87;18.90;;;-5.80;99.90;;;;;;4431513;28;658662;-49
2021/03/10 01:10:33;;;;;;;59.03;19.55;;;-5.80;99.90;;;;;;4429500;28;659261;-50
2021/03/10 01:13:21;;;;;;;51.27;17.87;;;-5.80;99.90;;;;;;4446475;28;660111;-51
2021/03/10 01:16:08;;;;;;;63.40;21.23;;;-5.80;99.90;;;;;;4419980;28;659339;-51
2021/03/10 01:18:55;;;;;;;61.53;19.57;;;-5.80;99.90;;;;;;4452134;28;660326;-50
2021/03/10 01:21:42;;;;;;;55.43;18.43;;;-5.80;99.90;;;;;;4413704;28;661134;-53
2021/03/10 01:24:29;;;;;;;55.40;17.13;;;-5.80;99.90;;;;;;4446028;28;659443;-48
2021/03/10 01:27:17;;;;;;;55.27;17.47;;;-5.80;99.90;;;;;;4463528;28;658520;-50
2021/03/10 01:30:06;;;;;;;42.73;16.40;;;-5.80;99.90;;;;;;4438254;28;660188;-51
2021/03/10 01:32:53;;;;;;;48.90;15.93;;;-5.90;99.90;;;;;;4442269;28;658393;-50
2021/03/10 01:35:40;;;;;;;44.73;15.50;;;-5.90;99.90;;;;;;4445491;28;658779;-49
2021/03/10 01:38:27;;;;;;;45.40;14.77;;;-5.90;99.90;;;;;;4446783;28;658958;-52
2021/03/10 01:41:14;;;;;;;45.47;16.95;;;-5.90;99.90;;;;;;4454713;28;660307;-47
2021/03/10 01:44:01;;;;;;;41.47;15.85;;;-5.90;99.90;;;;;;4464935;28;658740;-48
2021/03/10 01:46:49;;;;;;;50.23;16.03;;;-5.90;99.90;;;;;;4444486;28;658635;-47
2021/03/10 01:49:36;;;;;;;42.03;15.55;;;-5.90;99.90;;;;;;4448800;28;659972;-49
2021/03/10 01:52:23;;;;;;;46.55;15.52;;;-6.00;99.90;;;;;;4438727;28;658665;-47
2021/03/10 01:55:11;;;;;;;44.17;14.07;;;-6.00;99.90;;;;;;4465211;28;658640;-49
2021/03/10 01:57:58;;;;;;;37.60;14.00;;;-6.10;99.90;;;;;;4445128;28;659308;-52
2021/03/10 02:00:45;;;;;;;39.57;12.97;;;-6.10;99.90;;;;;;4452457;28;660893;-51
2021/03/10 02:03:33;;;;;;;45.97;13.57;;;-6.10;99.90;;;;;;4464547;28;658684;-55
2021/03/10 02:06:26;;;;;;;39.00;13.53;;;-6.20;99.90;;;;;;4464721;28;658841;-47
2021/03/10 02:09:16;;;;;;;42.37;14.37;;;-6.20;99.90;;;;;;4442763;28;659062;-50
2021/03/10 02:12:08;;;;;;;33.40;13.18;;;-6.30;99.90;;;;;;4429770;28;658975;-50
2021/03/10 02:14:59;;;;;;;40.37;15.10;;;-6.30;99.90;;;;;;4439586;28;659523;-52
2021/03/10 02:17:50;;;;;;;48.47;17.05;;;-6.40;99.90;;;;;;4436099;28;658762;-50
2021/03/10 02:20:39;;;;;;;73.47;20.53;;;-6.40;99.90;;;;;;4422219;28;658885;-52
2021/03/10 02:23:52;;;;;;;58.10;18.10;;;-6.40;99.90;;;;;;4453348;28;660046;-51
2021/03/10 02:26:49;;;;;;;44.07;14.73;;;-6.30;99.90;;;;;;4441122;28;659408;-51
2021/03/10 02:29:37;;;;;;;40.43;14.93;;;-6.30;99.90;;;;;;4424787;28;659644;-48
2021/03/10 02:32:24;;;;;;;44.53;14.47;;;-6.40;99.90;;;;;;4445636;28;659327;-52
2021/03/10 02:35:11;;;;;;;41.20;14.80;;;-6.40;99.90;;;;;;4458302;28;660808;-51
2021/03/10 02:37:59;;;;;;;38.83;14.53;;;-6.40;99.90;;;;;;4441771;28;659331;-50
2021/03/10 02:40:47;;;;;;;36.53;14.20;;;-6.40;99.90;;;;;;4468400;28;659159;-49
2021/03/10 02:43:33;;;;;;;40.53;13.03;;;-6.40;99.90;;;;;;4436691;28;658491;-53
2021/03/10 02:46:21;;;;;;;38.40;14.07;;;-6.40;99.90;;;;;;4462778;28;661215;-51
2021/03/10 02:49:08;;;;;;;30.75;12.55;;;-6.40;99.90;;;;;;4438802;28;658470;-52
2021/03/10 02:51:58;;;;;;;43.93;12.20;;;-6.40;99.90;;;;;;4456284;28;658915;-47
2021/03/10 02:54:45;;;;;;;35.13;13.70;;;-6.40;99.90;;;;;;4441380;28;659145;-49
2021/03/10 02:57:32;;;;;;;35.57;13.07;;;-6.50;99.90;;;;;;4430146;28;658553;-52
2021/03/10 03:00:21;;;;;;;38.27;13.70;;;-6.50;99.90;;;;;;4468777;28;659271;-48
2021/03/10 03:03:09;;;;;;;36.73;13.50;;;-6.50;99.90;;;;;;4445818;28;658713;-49
2021/03/10 03:05:55;;;;;;;40.17;13.33;;;-6.50;99.90;;;;;;4437209;28;658902;-47
2021/03/10 03:08:43;;;;;;;38.23;13.97;;;-6.50;99.90;;;;;;4420109;28;659692;-52
2021/03/10 03:11:29;;;;;;;37.10;13.53;;;-6.50;99.90;;;;;;4433828;28;660168;-47
2021/03/10 03:14:18;;;;;;;49.53;15.33;;;-6.60;99.90;;;;;;4422516;28;658832;-47
2021/03/10 03:17:05;;;;;;;43.17;14.67;;;-6.50;99.90;;;;;;4421127;28;660208;-48
2021/03/10 03:19:53;;;;;;;46.00;14.73;;;-6.50;99.90;;;;;;4435986;28;658743;-54
2021/03/10 03:22:42;;;;;;;45.23;14.57;;;-6.50;99.90;;;;;;4425681;28;658438;-50
2021/03/10 03:25:32;;;;;;;45.07;15.30;;;-6.50;99.90;;;;;;4422961;28;660139;-50
2021/03/10 03:28:20;;;;;;;38.90;14.40;;;-6.50;99.90;;;;;;4407502;28;659147;-53
2021/03/10 03:31:07;;;;;;;36.33;12.63;;;-6.50;99.90;;;;;;4421666;28;658925;-52
2021/03/10 03:33:54;;;;;;;36.73;12.90;;;-6.50;99.90;;;;;;4454445;28;658925;-51
2021/03/10 03:36:42;;;;;;;48.20;16.67;;;-6.50;99.90;;;;;;4449935;28;659213;-48
2021/03/10 03:39:29;;;;;;;48.00;14.97;;;-6.50;99.90;;;;;;4426189;28;660036;-49
2021/03/10 03:42:16;;;;;;;42.47;15.17;;;-6.50;99.90;;;;;;4449786;28;659603;-48
2021/03/10 03:45:03;;;;;;;42.17;14.37;;;-6.60;99.90;;;;;;4431235;28;658905;-52
2021/03/10 03:47:50;;;;;;;44.80;15.97;;;-6.60;99.90;;;;;;4444179;28;660011;-50
2021/03/10 03:50:38;;;;;;;48.13;13.67;;;-6.60;99.90;;;;;;4430117;28;659121;-52
2021/03/10 03:53:26;;;;;;;46.73;15.90;;;-6.60;99.90;;;;;;4450928;28;659460;-47
2021/03/10 03:56:13;;;;;;;48.33;16.67;;;-6.60;99.90;;;;;;4422600;28;659672;-52
2021/03/10 03:59:00;;;;;;;40.47;14.23;;;-6.60;99.90;;;;;;4445613;28;660242;-49
2021/03/10 04:01:47;;;;;;;45.53;16.07;;;-6.70;99.90;;;;;;4441356;28;658385;-55
2021/03/10 04:04:34;;;;;;;54.03;14.70;;;-6.70;99.90;;;;;;4451167;28;658376;-47
2021/03/10 04:07:21;;;;;;;48.10;17.23;;;-6.70;99.90;;;;;;4450224;28;659821;-52
2021/03/10 04:10:10;;;;;;;51.60;17.83;;;-6.80;99.90;;;;;;4430598;28;659681;-51
2021/03/10 04:12:57;;;;;;;69.80;21.47;;;-6.70;99.90;;;;;;4439287;28;658529;-55
2021/03/10 04:15:45;;;;;;;65.13;20.27;;;-6.80;99.90;;;;;;4440916;28;659503;-52
2021/03/10 04:18:31;;;;;;;58.30;18.97;;;-6.80;99.90;;;;;;4447686;28;659476;-54
2021/03/10 04:21:18;;;;;;;49.10;16.27;;;-6.80;99.90;;;;;;4429373;28;659383;-53
2021/03/10 04:24:07;;;;;;;44.30;15.80;;;-6.80;99.90;;;;;;4448065;28;659111;-53
2021/03/10 04:26:55;;;;;;;53.17;17.53;;;-6.90;99.90;;;;;;4419703;28;660329;-50
2021/03/10 04:29:42;;;;;;;56.43;16.93;;;-6.90;99.90;;;;;;4442237;28;658943;-49
2021/03/10 04:32:28;;;;;;;45.27;15.77;;;-6.90;99.90;;;;;;4423431;28;658244;-52
2021/03/10 04:35:16;;;;;;;59.97;18.27;;;-6.90;99.90;;;;;;4442460;28;659270;-50
2021/03/10 04:38:04;;;;;;;65.40;20.90;;;-6.90;99.90;;;;;;4420637;28;658723;-51
2021/03/10 04:40:51;;;;;;;50.63;16.97;;;-7.00;99.90;;;;;;4456325;28;659243;-48
2021/03/10 04:43:38;;;;;;;42.03;15.30;;;-7.00;99.90;;;;;;4444652;28;658671;-51
2021/03/10 04:46:25;;;;;;;63.20;18.77;;;-7.10;99.90;;;;;;4460104;28;659384;-50
2021/03/10 04:49:12;;;;;;;55.03;16.37;;;-7.10;99.90;;;;;;4446314;28;660094;-53
2021/03/10 04:51:59;;;;;;;43.00;15.13;;;-7.10;99.90;;;;;;4468967;28;658195;-50
2021/03/10 04:54:46;;;;;;;37.35;13.63;;;-7.10;99.90;;;;;;4465716;28;659257;-49
2021/03/10 04:57:33;;;;;;;38.20;13.77;;;-7.20;99.90;;;;;;4442548;28;658554;-52
2021/03/10 05:00:22;;;;;;;45.93;14.37;;;-7.20;99.90;;;;;;4466690;28;659671;-52
2021/03/10 05:03:09;;;;;;;40.20;15.07;;;-7.10;99.90;;;;;;4436760;28;659711;-48
2021/03/10 05:05:56;;;;;;;35.27;13.37;;;-7.10;99.90;;;;;;4464636;28;659191;-53
2021/03/10 05:08:43;;;;;;;34.37;12.67;;;-7.10;99.90;;;;;;4440309;28;659834;-52
2021/03/10 05:11:30;;;;;;;39.93;12.93;;;-7.00;99.90;;;;;;4456895;28;658565;-52
2021/03/10 05:14:17;;;;;;;41.57;14.80;;;-7.10;99.90;;;;;;4444336;28;659490;-54
2021/03/10 05:17:05;;;;;;;39.50;13.20;;;-7.10;99.90;;;;;;4455199;28;658333;-48
2021/03/10 05:19:52;;;;;;;38.97;14.05;;;-7.10;99.90;;;;;;4446583;28;660093;-55
2021/03/10 05:22:40;;;;;;;47.93;15.13;;;-7.10;99.90;;;;;;4460241;28;659710;-51
2021/03/10 05:25:27;;;;;;;42.77;13.97;;;-7.10;99.90;;;;;;4463031;28;658429;-52
2021/03/10 05:28:14;;;;;;;41.90;13.80;;;-7.10;99.90;;;;;;4433560;28;659587;-47
2021/03/10 05:31:01;;;;;;;44.47;13.30;;;-7.10;99.90;;;;;;4457791;28;658727;-47
2021/03/10 05:33:48;;;;;;;39.27;13.23;;;-7.10;99.90;;;;;;4445692;28;659527;-52
2021/03/10 05:36:36;;;;;;;41.13;14.03;;;-7.10;99.90;;;;;;4456701;28;658977;-50
2021/03/10 05:39:23;;;;;;;54.73;15.90;;;-7.10;99.90;;;;;;4446381;28;658756;-55
2021/03/10 05:42:10;;;;;;;54.13;16.13;;;-6.90;99.90;;;;;;4468633;28;659948;-49
2021/03/10 05:44:57;;;;;;;52.57;16.97;;;-6.90;99.90;;;;;;4444546;28;658750;-54
2021/03/10 05:47:44;;;;;;;48.65;16.13;;;-6.80;99.90;;;;;;4468760;28;658359;-47
2021/03/10 05:50:32;;;;;;;50.67;16.83;;;-6.70;99.90;;;;;;4463973;28;659008;-52
2021/03/10 05:53:22;;;;;;;68.23;19.37;;;-6.60;99.90;;;;;;4441654;28;659744;-51
2021/03/10 05:56:09;;;;;;;63.83;20.00;;;-6.40;99.90;;;;;;4441217;28;659556;-50
2021/03/10 05:58:56;;;;;;;64.33;21.13;;;-6.30;99.90;;;;;;4453698;28;659541;-51
2021/03/10 06:01:43;;;;;;;83.27;22.97;;;-6.20;99.90;;;;;;4433953;28;659552;-51
2021/03/10 06:04:39;;;;;;;74.73;20.60;;;-6.10;99.90;;;;;;4460207;28;660254;-50
2021/03/10 06:07:27;;;;;;;72.30;23.23;;;-5.90;99.90;;;;;;4436774;28;659755;-49
2021/03/10 06:10:15;;;;;;;95.50;30.60;;;-5.80;99.90;;;;;;4436166;28;660152;-50
2021/03/10 06:13:02;;;;;;;87.77;26.90;;;-5.60;99.90;;;;;;4455905;28;658442;-55
2021/03/10 06:15:49;;;;;;;105.75;31.65;;;-5.40;99.90;;;;;;4465973;28;658216;-59
2021/03/10 06:18:36;;;;;;;86.72;27.90;;;-5.30;99.90;;;;;;4460736;28;660116;-59
2021/03/10 06:21:23;;;;;;;99.20;30.60;;;-5.20;99.90;;;;;;4421506;28;659573;-58
2021/03/10 06:24:12;;;;;;;93.20;31.63;;;-5.10;99.90;;;;;;4463770;28;659510;-58
2021/03/10 06:26:59;;;;;;;94.63;30.88;;;-4.90;99.90;;;;;;4438520;28;660576;-59
2021/03/10 06:29:55;;;;;;;95.72;31.00;;;-4.70;99.90;;;;;;4459089;28;658732;-65
2021/03/10 06:32:42;;;;;;;112.23;36.60;;;-4.40;99.90;;;;;;4433569;28;660166;-65
2021/03/10 06:35:29;;;;;;;102.97;34.83;;;-4.20;99.90;;;;;;4444526;28;660652;-64
2021/03/10 06:38:16;;;;;;;138.17;38.13;;;-3.90;99.90;;;;;;4462670;28;658936;-65
2021/03/10 06:41:04;;;;;;;126.23;33.23;;;-3.70;99.90;;;;;;4440539;28;659918;-65
2021/03/10 06:43:51;;;;;;;96.90;31.00;;;-3.50;99.90;;;;;;4460407;28;659996;-64
2021/03/10 06:46:48;;;;;;;83.67;29.30;;;-3.30;99.90;;;;;;4437631;28;658806;-64
2021/03/10 06:49:35;;;;;;;72.03;27.90;;;-3.10;99.90;;;;;;4438540;28;659461;-63
2021/03/10 06:52:22;;;;;;;76.40;26.83;;;-2.80;99.90;;;;;;4443801;28;659659;-64
2021/03/10 06:55:11;;;;;;;76.87;26.90;;;-2.60;99.90;;;;;;4462817;28;661026;-63
2021/03/10 06:58:00;;;;;;;90.23;30.27;;;-2.40;99.90;;;;;;4441457;28;660275;-64
2021/03/10 07:00:47;;;;;;;69.07;23.23;;;-2.20;99.90;;;;;;4454087;28;660428;-64
2021/03/10 07:03:34;;;;;;;53.93;20.93;;;-2.00;99.90;;;;;;4436938;28;659668;-64
2021/03/10 07:06:22;;;;;;;47.30;17.03;;;-1.80;99.90;;;;;;4454970;28;659429;-65
2021/03/10 07:09:10;;;;;;;46.37;17.83;;;-1.60;99.90;;;;;;4437065;28;659696;-65
2021/03/10 07:11:57;;;;;;;44.50;17.37;;;-1.50;99.90;;;;;;4461222;28;660655;-61
2021/03/10 07:14:46;;;;;;;44.50;17.33;;;-1.30;99.90;;;;;;4461858;28;659951;-65
2021/03/10 07:17:33;;;;;;;30.73;12.10;;;-1.10;99.90;;;;;;4439527;28;660040;-65
2021/03/10 07:20:21;;;;;;;31.97;12.30;;;-0.90;99.90;;;;;;4463079;28;660598;-64
2021/03/10 07:23:11;;;;;;;32.63;12.98;;;-0.80;99.90;;;;;;4443774;28;661153;-64
2021/03/10 07:26:00;;;;;;;33.03;13.73;;;-0.70;99.90;;;;;;4443910;28;659947;-65
2021/03/10 07:28:49;;;;;;;31.23;13.10;;;-0.60;99.90;;;;;;4449943;28;659805;-61
2021/03/10 07:31:37;;;;;;;36.13;13.50;;;-0.40;99.90;;;;;;4466580;28;659520;-65
2021/03/10 07:34:25;;;;;;;68.40;20.50;;;-0.10;99.90;;;;;;4424907;28;660718;-65
2021/03/10 07:37:12;;;;;;;30.30;12.90;;;0.10;99.90;;;;;;4450108;28;659637;-61
2021/03/10 07:40:07;;;;;;;29.33;11.63;;;0.20;99.90;;;;;;4461126;28;659620;-64
2021/03/10 07:42:55;;;;;;;34.70;11.73;;;0.40;99.90;;;;;;4437822;28;659462;-64
2021/03/10 07:45:43;;;;;;;27.57;10.70;;;0.40;99.90;;;;;;4438073;28;659335;-60
2021/03/10 07:48:33;;;;;;;26.30;11.35;;;0.60;99.90;;;;;;4462762;28;659802;-58
2021/03/10 07:51:27;;;;;;;24.03;9.53;;;0.80;99.90;;;;;;4440175;28;660147;-65
2021/03/10 07:54:18;;;;;;;30.53;11.77;;;1.00;99.90;;;;;;4440763;28;657562;-64
2021/03/10 07:57:07;;;;;;;48.17;14.40;;;1.20;99.90;;;;;;4433961;28;659600;-64
2021/03/10 07:59:55;;;;;;;48.93;16.17;;;1.10;99.90;;;;;;4440360;28;658831;-64
2021/03/10 08:02:43;;;;;;;17.70;6.20;;;1.30;99.40;;;;;;4450390;28;658706;-61
2021/03/10 08:05:32;;;;;;;31.67;10.30;;;1.60;97.80;;;;;;4459331;28;659729;-65
2021/03/10 08:08:19;;;;;;;13.60;5.00;;;1.60;97.20;;;;;;4429034;28;659562;-65
2021/03/10 08:11:11;;;;;;;29.17;11.47;;;1.60;97.00;;;;;;4460205;28;657729;-65
2021/03/10 08:13:59;;;;;;;26.03;9.77;;;1.60;98.20;;;;;;4420180;28;659791;-65
2021/03/10 08:16:49;;;;;;;26.73;11.73;;;1.60;97.40;;;;;;4467129;28;657984;-64
2021/03/10 08:19:36;;;;;;;19.63;7.50;;;1.70;94.40;;;;;;4432334;28;659657;-64
2021/03/10 08:22:25;;;;;;;27.43;10.37;;;1.80;94.40;;;;;;4420350;28;657730;-64
2021/03/10 08:25:14;;;;;;;27.10;10.90;;;1.90;93.50;;;;;;4439579;28;658854;-62
2021/03/10 08:28:10;;;;;;;27.07;9.07;;;2.00;94.60;;;;;;4455878;28;660492;-64
2021/03/10 08:31:00;;;;;;;25.57;10.57;;;2.20;89.20;;;;;;4429705;28;657459;-62
2021/03/10 08:33:48;;;;;;;21.13;9.53;;;2.20;90.60;;;;;;4447462;28;658452;-62
2021/03/10 08:36:35;;;;;;;21.83;9.38;;;2.40;88.70;;;;;;4468256;28;658853;-63
2021/03/10 08:39:23;;;;;;;10.93;4.90;;;2.40;88.60;;;;;;4443263;28;658681;-60
2021/03/10 08:42:10;;;;;;;26.67;11.33;;;2.60;80.90;;;;;;4460532;28;658544;-62
2021/03/10 08:44:57;;;;;;;23.13;8.53;;;2.50;84.40;;;;;;4437077;28;659155;-62
2021/03/10 08:47:44;;;;;;;27.73;8.77;;;2.70;81.80;;;;;;4469974;28;657947;-62
2021/03/10 08:50:32;;;;;;;22.87;9.83;;;3.00;77.50;;;;;;4467928;28;657521;-65
2021/03/10 08:53:24;;;;;;;25.33;9.07;;;3.30;77.60;;;;;;4438709;28;659045;-66
2021/03/10 08:56:17;;;;;;;15.73;6.63;;;3.60;74.10;;;;;;4429345;28;657344;-64
2021/03/10 08:59:04;;;;;;;12.63;5.60;;;4.00;67.10;;;;;;4409895;28;659106;-65
2021/03/10 09:01:51;;;;;;;18.07;7.10;;;4.10;65.80;;;;;;4464098;28;657065;-65
2021/03/10 09:04:42;;;;;;;19.13;8.73;;;3.90;68.60;;;;;;4434789;28;657519;-65
2021/03/10 09:07:30;;;;;;;15.07;7.10;;;4.00;65.50;;;;;;4427216;28;658422;-66
2021/03/10 09:10:18;;;;;;;22.13;8.60;;;3.80;63.60;;;;;;4432383;28;658086;-61
2021/03/10 09:13:06;;;;;;;20.00;8.70;;;4.00;66.40;;;;;;4463932;28;658482;-64
2021/03/10 09:15:53;;;;;;;19.13;8.70;;;4.10;66.10;;;;;;4447595;28;657516;-64
2021/03/10 09:18:40;;;;;;;26.83;9.20;;;4.20;66.00;;;;;;4470142;28;659000;-65
2021/03/10 09:21:38;;;;;;;19.00;8.40;;;4.20;65.40;;;;;;4443606;28;658753;-61
2021/03/10 09:24:25;;;;;;;19.88;7.80;;;4.40;62.10;;;;;;4406611;28;659127;-65
2021/03/10 09:27:16;;;;;;;20.17;8.73;;;4.60;61.40;;;;;;4462743;28;657184;-65
2021/03/10 09:30:06;;;;;;;21.33;8.30;;;4.90;60.40;;;;;;4408516;28;658346;-64
2021/03/10 09:32:54;;;;;;;18.27;7.87;;;4.80;60.10;;;;;;4444079;28;659121;-65
2021/03/10 09:35:41;;;;;;;21.60;9.27;;;4.90;60.30;;;;;;4460065;28;657866;-66
2021/03/10 09:38:29;;;;;;;16.83;7.07;;;5.00;56.40;;;;;;4439245;28;658322;-64
2021/03/10 09:41:16;;;;;;;17.27;7.87;;;4.50;56.30;;;;;;4454090;28;657128;-65
2021/03/10 09:44:06;;;;;;;19.97;8.53;;;5.10;54.90;;;;;;4440030;28;657813;-64
2021/03/10 09:46:54;;;;;;;18.63;8.50;;;5.10;56.80;;;;;;4438109;28;657441;-64
2021/03/10 09:49:51;;;;;;;15.43;7.00;;;5.40;57.30;;;;;;4465516;28;659293;-65
2021/03/10 09:52:39;;;;;;;29.43;10.77;;;5.50;52.50;;;;;;4408924;28;659309;-63
2021/03/10 09:55:26;;;;;;;46.40;15.60;;;5.40;53.00;;;;;;4459771;28;659379;-65
2021/03/10 09:58:14;;;;;;;20.03;7.77;;;5.30;54.20;;;;;;4441897;28;660345;-64
2021/03/10 10:01:01;;;;;;;25.80;10.13;;;5.40;54.10;;;;;;4464505;28;657904;-65
2021/03/10 10:03:49;;;;;;;19.27;7.90;;;5.80;53.10;;;;;;4439664;28;658492;-64
2021/03/10 10:06:36;;;;;;;16.47;8.67;;;6.40;52.40;;;;;;4458663;28;657985;-65
2021/03/10 10:09:23;;;;;;;14.67;7.33;;;6.80;52.90;;;;;;4433175;28;658450;-65
2021/03/10 10:12:11;;;;;;;22.57;9.17;;;6.20;50.60;;;;;;4459433;28;658875;-64
2021/03/10 10:14:58;;;;;;;13.23;6.90;;;6.80;51.60;;;;;;4441825;28;657841;-66
2021/03/10 10:17:45;;;;;;;13.73;7.43;;;7.40;48.60;;;;;;4458493;28;659084;-66
2021/03/10 10:20:35;;;;;;;31.38;11.35;;;7.30;45.10;;;;;;4446692;28;658764;-62
2021/03/10 10:23:22;;;;;;;14.77;7.40;;;6.90;44.50;;;;;;4443798;28;658637;-61
2021/03/10 10:26:09;;;;;;;12.03;6.43;;;7.10;46.00;;;;;;4461695;28;657335;-64
2021/03/10 10:28:56;;;;;;;14.23;6.85;;;6.50;45.30;;;;;;4465199;28;658817;-66
2021/03/10 10:31:43;;;;;;;20.77;8.30;;;6.10;47.10;;;;;;4436603;28;658885;-66
2021/03/10 10:34:30;;;;;;;40.87;10.97;;;6.40;46.00;;;;;;4458039;28;659519;-65
2021/03/10 10:37:18;;;;;;;14.87;7.20;;;6.30;46.20;;;;;;4445458;28;659218;-64
2021/03/10 10:40:08;;;;;;;108.07;22.23;;;5.70;45.60;;;;;;4464913;28;658113;-65
2021/03/10 10:42:55;;;;;;;17.57;7.20;;;5.40;46.50;;;;;;4433242;28;661570;-66
2021/03/10 10:45:42;;;;;;;12.67;6.70;;;5.60;47.90;;;;;;4440171;28;658532;-63
2021/03/10 10:48:29;;;;;;;12.48;6.65;;;5.90;46.40;;;;;;4462001;28;658442;-65
2021/03/10 10:51:19;;;;;;;13.27;6.55;;;6.50;45.20;;;;;;4458379;28;657500;-65
2021/03/10 10:54:07;;;;;;;21.73;9.17;;;6.80;44.10;;;;;;4436461;28;657540;-65
2021/03/10 10:56:54;;;;;;;12.63;7.07;;;7.00;45.90;;;;;;4430253;28;658948;-63
2021/03/10 10:59:41;;;;;;;13.50;6.77;;;7.20;45.20;;;;;;4458333;28;657812;-66
2021/03/10 11:02:28;;;;;;;15.03;7.70;;;7.50;44.90;;;;;;4443525;28;657909;-65
2021/03/10 11:05:15;;;;;;;13.23;7.80;;;7.80;44.20;;;;;;4458663;28;658204;-66
2021/03/10 11:08:02;;;;;;;25.50;11.47;;;8.00;43.30;;;;;;4438857;28;659010;-63
2021/03/10 11:10:50;;;;;;;14.60;7.77;;;8.50;43.70;;;;;;4461622;28;659494;-66
2021/03/10 11:13:37;;;;;;;20.33;10.20;;;8.70;42.90;;;;;;4446252;28;658866;-64
2021/03/10 11:16:24;;;;;;;16.53;7.80;;;8.70;41.60;;;;;;4455102;28;659206;-66
2021/03/10 11:19:12;;;;;;;14.63;7.17;;;8.90;41.60;;;;;;4463816;28;657799;-65
2021/03/10 11:21:59;;;;;;;12.50;6.97;;;9.10;40.20;;;;;;4441726;28;658663;-66
2021/03/10 11:24:46;;;;;;;13.90;7.40;;;8.70;41.30;;;;;;4464935;28;657206;-66
2021/03/10 11:27:34;;;;;;;14.93;8.40;;;8.80;41.40;;;;;;4432162;28;658364;-63
2021/03/10 11:30:23;;;;;;;14.53;7.63;;;8.80;38.40;;;;;;4465564;28;657606;-64
2021/03/10 11:33:10;;;;;;;24.07;10.53;;;8.60;41.10;;;;;;4443234;28;659048;-65
2021/03/10 11:35:57;;;;;;;23.63;10.60;;;8.60;40.80;;;;;;4442066;28;659429;-62
2021/03/10 11:38:45;;;;;;;33.93;11.20;;;9.00;42.40;;;;;;4464407;28;659983;-66
2021/03/10 11:41:33;;;;;;;14.70;7.80;;;9.60;41.50;;;;;;4463006;28;659700;-65
2021/03/10 11:44:21;;;;;;;16.90;8.17;;;9.90;40.80;;;;;;4437093;28;658145;-66
2021/03/10 11:47:09;;;;;;;17.00;7.27;;;10.00;37.70;;;;;;4439488;28;657767;-64
2021/03/10 11:49:56;;;;;;;15.83;7.90;;;9.20;38.30;;;;;;4464245;28;659956;-63
2021/03/10 11:52:43;;;;;;;29.23;11.03;;;8.60;39.60;;;;;;4445177;28;658262;-64
2021/03/10 11:55:30;;;;;;;43.00;14.30;;;9.30;41.60;;;;;;4469777;28;659464;-66
2021/03/10 11:58:18;;;;;;;29.00;13.60;;;9.20;40.30;;;;;;4442812;28;658528;-62
2021/03/10 12:01:06;;;;;;;13.87;7.57;;;9.30;39.70;;;;;;4466376;28;660221;-66
2021/03/10 12:03:55;;;;;;;19.83;8.87;;;9.70;40.90;;;;;;4445031;28;659041;-66
2021/03/10 12:06:42;;;;;;;19.70;9.20;;;10.10;38.90;;;;;;4428825;28;657529;-64
2021/03/10 12:09:30;;;;;;;16.77;8.73;;;10.50;37.90;;;;;;4433761;28;660234;-66
2021/03/10 12:12:17;;;;;;;20.73;9.47;;;10.70;39.60;;;;;;4435813;28;659374;-63
2021/03/10 12:15:05;;;;;;;20.58;9.50;;;10.80;38.40;;;;;;4441923;28;657773;-65
2021/03/10 12:17:53;;;;;;;17.47;8.57;;;9.90;39.50;;;;;;4430526;28;659325;-64
2021/03/10 12:20:40;;;;;;;19.20;9.50;;;10.00;38.70;;;;;;4430909;28;659082;-64
2021/03/10 12:23:27;;;;;;;19.03;8.80;;;10.00;38.90;;;;;;4416031;28;658951;-64
2021/03/10 12:26:14;;;;;;;17.10;8.77;;;10.10;38.60;;;;;;4452050;28;659103;-64
2021/03/10 12:29:02;;;;;;;20.27;10.10;;;9.90;40.00;;;;;;4463248;28;658586;-66
2021/03/10 12:31:49;;;;;;;14.30;8.13;;;10.40;39.80;;;;;;4436320;28;659618;-66
2021/03/10 12:34:37;;;;;;;18.10;9.63;;;10.40;39.40;;;;;;4464972;28;658967;-66
2021/03/10 12:37:24;;;;;;;18.43;9.57;;;11.00;38.00;;;;;;4447623;28;659353;-66
2021/03/10 12:40:12;;;;;;;17.77;9.40;;;10.90;37.20;;;;;;4458325;28;658801;-65
2021/03/10 12:42:59;;;;;;;19.50;9.10;;;10.40;36.80;;;;;;4437976;28;659809;-65
2021/03/10 12:45:46;;;;;;;25.20;10.07;;;9.80;39.30;;;;;;4464390;28;659742;-65
2021/03/10 12:48:33;;;;;;;22.70;9.37;;;9.10;39.90;;;;;;4444771;28;659524;-65
2021/03/10 12:51:21;;;;;;;18.67;9.60;;;9.00;40.80;;;;;;4460169;28;659237;-65
2021/03/10 12:54:09;;;;;;;18.45;9.80;;;8.90;40.90;;;;;;4447946;28;657712;-65
2021/03/10 12:56:56;;;;;;;35.10;13.90;;;9.60;40.90;;;;;;4451476;28;659118;-65
2021/03/10 12:59:43;;;;;;;21.10;9.60;;;10.20;39.90;;;;;;4442236;28;658936;-65
2021/03/10 13:02:30;;;;;;;41.10;16.17;;;10.80;37.40;;;;;;4466556;28;659528;-64
2021/03/10 13:05:17;;;;;;;21.27;10.57;;;11.40;38.40;;;;;;4457902;28;661277;-62
2021/03/10 13:08:06;;;;;;;18.43;9.17;;;12.30;36.80;;;;;;4464374;28;658921;-65
2021/03/10 13:10:53;;;;;;;18.93;9.77;;;12.40;35.20;;;;;;4446463;28;659336;-66
2021/03/10 13:13:40;;;;;;;29.63;13.97;;;12.40;34.60;;;;;;4465376;28;659495;-66
2021/03/10 13:16:27;;;;;;;20.00;10.13;;;13.40;35.20;;;;;;4452824;28;660409;-62
2021/03/10 13:19:14;;;;;;;51.80;21.80;;;14.80;32.20;;;;;;4463857;28;659340;-65
2021/03/10 13:22:01;;;;;;;17.57;10.07;;;14.50;34.20;;;;;;4456409;28;659777;-65
2021/03/10 13:24:49;;;;;;;26.67;12.13;;;13.80;32.90;;;;;;4441535;28;660540;-65
2021/03/10 13:27:36;;;;;;;20.57;10.60;;;14.30;33.80;;;;;;4456818;28;659523;-65
2021/03/10 13:30:24;;;;;;;34.50;14.70;;;14.60;33.70;;;;;;4440555;28;661355;-65
2021/03/10 13:33:11;;;;;;;50.10;24.23;;;15.00;32.20;;;;;;4454592;28;660998;-62
2021/03/10 13:35:58;;;;;;;25.33;11.95;;;15.10;32.90;;;;;;4440845;28;661010;-65
2021/03/10 13:38:45;;;;;;;22.00;10.70;;;13.90;32.00;;;;;;4459412;28;659752;-64
2021/03/10 13:41:33;;;;;;;22.63;10.50;;;12.30;32.80;;;;;;4444278;28;659464;-62
2021/03/10 13:44:20;;;;;;;20.70;11.17;;;11.20;34.90;;;;;;4461421;28;661052;-65
2021/03/10 13:47:07;;;;;;;67.57;23.10;;;10.30;36.00;;;;;;4444441;28;659666;-60
2021/03/10 13:49:54;;;;;;;256.83;57.70;;;10.10;38.20;;;;;;4457477;28;659547;-66
2021/03/10 13:52:41;;;;;;;33.25;14.70;;;9.50;38.80;;;;;;4458452;28;660745;-64
2021/03/10 13:55:28;;;;;;;23.27;11.93;;;8.90;40.70;;;;;;4443195;28;658670;-65
2021/03/10 13:58:16;;;;;;;23.95;10.45;;;10.40;38.50;;;;;;4464665;28;659422;-64
2021/03/10 14:01:04;;;;;;;18.10;10.17;;;11.90;35.40;;;;;;4443172;28;660688;-64
2021/03/10 14:03:51;;;;;;;24.10;12.63;;;12.80;34.20;;;;;;4457564;28;659777;-65
2021/03/10 14:06:38;;;;;;;17.37;9.80;;;13.70;33.10;;;;;;4439702;28;662111;-62